Columbia (CAE/KCAE)

Map

Destinations

Information

Location
Columbia, SC
Local Time
02:33 / 2:33 am
GMT Time
07:33 / 7:33 am
Gates
Unassigned
No FAA reported delays
METAR KCAE 200656Z 26004KT 10SM CLR M02/M06 A3020 RMK AO2 SLP228 T10221056
TAF KCAE 200527Z 2006/2106 VRB03KT P6SM SKC FM201600 27007KT P6SM SKC FM210000 VRB03KT P6SM SKC